Nearby METAR Reports

 

KFNL - Ft Collins/Lovel, Colorado, USA
Distance from station: E 23mi, 37km
Updated: Tue, 31-Jan-2023 1:56am MST
Clear
Clear
 Wind from calm
Wind: Calm
Temperature: -6°F , -21°C
Dew Point: -9°F , -23°C
Humidity: 84%
Barometer: 30.14 inHg , 1020.7 hPa
Clouds: Clear
Visibility: 10 miles , 16 km
2023/01/31 08:56 KFNL 310856Z 00000KT 10SM CLR M21/M23 A3014 RMK AO2 SLP289 T12061233 55009 FZRANO
KLMO - Longmont/Vbrand, Colorado, USA
Distance from station: SE 26mi, 41km
Updated: Tue, 31-Jan-2023 2:55am MST
Clear
Clear
 Wind from calm
Wind: Calm
Temperature: -2°F , -19°C
Dew Point: -8°F , -22°C
Humidity: 77%
Barometer: 30.15 inHg , 1021 hPa
Clouds: Clear
Visibility: 10 miles , 16 km
2023/01/31 09:55 KLMO 310955Z AUTO 00000KT 10SM CLR M19/M22 A3015 RMK AO2 T11901218
 
KBDU - Boulder Muni, Colorado, USA
Distance from station: SSE 32mi, 52km
Updated: Tue, 31-Jan-2023 2:55am MST
Clear
Clear
 Wind from calm
Wind: Calm
Temperature: -0°F , -18°C
Dew Point: -4°F , -20°C
Humidity: 84%
Barometer: 30.11 inHg , 1019.6 hPa
Clouds: Clear
Visibility: 10 miles , 16 km
2023/01/31 09:55 KBDU 310955Z AUTO 00000KT 10SM CLR M18/M20 A3011 RMK AO2
KEIK - Erie Muni, Colorado, USA
Distance from station: SE 38mi, 61km
Updated: Tue, 31-Jan-2023 2:55am MST
Clear
Clear
 Wind from N
Wind: N 6 mph , 9 km/h
Temperature: -0°F , -18°C
Wind Chill: -12°F , -24°C
Dew Point: -4°F , -20°C
Humidity: 84%
Barometer: 30.13 inHg , 1020.3 hPa
Clouds: Clear
Visibility: 10 miles , 16 km
2023/01/31 09:55 KEIK 310955Z AUTO 36005KT 10SM CLR M18/M20 A3013 RMK AO2 T11831203
 
KBJC - Broomfield/Jeffc, Colorado, USA
Distance from station: SSE 44mi, 70km
Updated: Tue, 31-Jan-2023 2:55am MST
Clear
Clear
 Wind from S
Wind: S 9 mph , 15 km/h
Temperature: 5°F , -15°C
Wind Chill: -9°F , -23°C
Dew Point: 1°F , -17°C
Humidity: 85%
Barometer: 30.08 inHg , 1018.6 hPa
Clouds: Clear
Visibility: 10 miles , 16 km
2023/01/31 09:55 KBJC 310955Z AUTO 19008KT 10SM CLR M15/M17 A3008 RMK AO2
KGXY - Greeley/Weld, Colorado, USA
Distance from station: E 44mi, 71km
Updated: Tue, 31-Jan-2023 2:56am MST
Few Clouds
Few Clouds
 Wind from NNW
Wind: NNW 7 mph , 11 km/h
Temperature: -17°F , -27°C
Wind Chill: -34°F , -37°C
Dew Point: -20°F , -29°C
Humidity: 83%
Barometer: 30.17 inHg , 1021.7 hPa
Clouds: Few Clouds
Visibility: 10 miles , 16 km
Cloud details: Few Clouds 12000 ft
2023/01/31 09:56 KGXY 310956Z 34006KT 10SM FEW120 M27/M29 A3017 RMK AO2 SLP346 T12671294 FZRANO
 
K33V - Walden, Colorado, USA
Distance from station: WNW 48mi, 77km
Updated: Tue, 31-Jan-2023 2:55am MST
Clear
Clear
 Wind from WNW
Wind: WNW 5 mph , 7 km/h
Temperature: -8°F , -22°C
Wind Chill: -20°F , -29°C
Dew Point: -22°F , -30°C
Humidity: 48%
Barometer: 29.99 inHg , 1015.6 hPa
Clouds: Clear
Visibility: 10 miles , 16 km
2023/01/31 09:55 K33V 310955Z AUTO 29004KT 10SM CLR M22/M30 A2999 RMK AO1
K0CO - Berthoud Pass, Colorado, USA
Distance from station: SSW 49mi, 79km
Updated: Tue, 31-Jan-2023 2:55am MST
Overcast
Overcast
 Wind from NW
Wind: NW 22 mph , 35 km/h, Gust: 33 mph , 54 km/h
Temperature: -13°F , -25°C
Wind Chill: -40°F , -40°C
Dew Point: -18°F , -28°C
Humidity: 76%
Barometer: 29.71 inHg , 1006.1 hPa
Clouds: Overcast
Cloud details: Mostly cloudy 100 ft
Mostly cloudy 600 ft
Overcast 1600 ft
2023/01/31 09:55 K0CO 310955Z AUTO 31019G29KT BKN001 BKN006 OVC016 M25/M28 A2971 RMK AO2 PWINO